Time;durP1;ratioP1;P1;durP2;ratioP2;P2;SDS_P1;SDS_P2;PMS_P1;PMS_P2;Temp;Humidity;BMP_temperature;BMP_pressure;BME280_temperature;BME280_humidity;BME280_pressure;Samples;Min_cycle;Max_cycle;Signal;HPM_P1;HPM_P2
2022/05/11 00:01:00;;;;;;;5.70;4.28;;;17.10;99.90;;;;;;5072143;28;20094;-59
2022/05/11 00:03:27;;;;;;;7.63;4.57;;;17.10;99.90;;;;;;5073515;28;20451;-59
2022/05/11 00:05:53;;;;;;;7.03;4.65;;;17.10;99.90;;;;;;5072409;28;20074;-58
2022/05/11 00:08:19;;;;;;;7.18;4.60;;;17.10;99.90;;;;;;5073195;28;20028;-59
2022/05/11 00:10:44;;;;;;;8.57;4.53;;;17.10;99.90;;;;;;5072133;28;20073;-57
2022/05/11 00:13:10;;;;;;;7.40;4.80;;;17.10;99.90;;;;;;5073089;28;20024;-57
2022/05/11 00:15:36;;;;;;;5.97;4.95;;;17.00;99.90;;;;;;5073396;28;20050;-59
2022/05/11 00:18:02;;;;;;;12.32;6.30;;;17.00;99.90;;;;;;5072120;28;20028;-58
2022/05/11 00:20:28;;;;;;;9.27;6.30;;;17.10;99.90;;;;;;5073071;28;20025;-56
2022/05/11 00:22:58;;;;;;;5.75;4.47;;;17.00;99.90;;;;;;5073414;28;20020;-59
2022/05/11 00:25:25;;;;;;;5.03;4.47;;;17.00;99.90;;;;;;5073605;28;20027;-59
2022/05/11 00:27:56;;;;;;;4.63;4.13;;;17.00;99.90;;;;;;5072619;28;20032;-56
2022/05/11 00:30:24;;;;;;;5.53;4.38;;;17.00;99.90;;;;;;5072502;28;20134;-58
2022/05/11 00:32:56;;;;;;;5.55;4.32;;;17.00;99.90;;;;;;5071660;28;20074;-58
2022/05/11 00:35:22;;;;;;;6.13;4.82;;;17.00;99.90;;;;;;5072498;28;20024;-58
2022/05/11 00:37:48;;;;;;;5.97;4.85;;;16.90;99.90;;;;;;5073044;28;20028;-58
2022/05/11 00:40:16;;;;;;;6.95;5.30;;;16.90;99.90;;;;;;5071242;28;20127;-58
2022/05/11 00:42:41;;;;;;;7.10;4.95;;;16.90;99.90;;;;;;5072923;28;20020;-58
2022/05/11 00:45:08;;;;;;;6.30;5.15;;;16.80;99.90;;;;;;5071629;28;20024;-59
2022/05/11 00:47:46;;;;;;;5.45;4.47;;;16.80;99.90;;;;;;5072647;28;20052;-57
2022/05/11 00:50:34;;;;;;;5.00;4.47;;;16.80;99.90;;;;;;5072727;28;20059;-59
2022/05/11 00:53:09;;;;;;;6.00;4.57;;;16.80;99.90;;;;;;5072725;28;20036;-58
2022/05/11 00:55:39;;;;;;;7.45;5.15;;;16.70;99.90;;;;;;5072360;28;20135;-59
2022/05/11 00:58:19;;;;;;;8.82;4.82;;;16.70;99.90;;;;;;5071754;28;20103;-58
2022/05/11 01:00:46;;;;;;;5.60;4.78;;;16.70;99.90;;;;;;5072613;28;20115;-59
2022/05/11 01:03:15;;;;;;;5.78;5.20;;;16.60;99.90;;;;;;5071367;28;20025;-58
2022/05/11 01:05:42;;;;;;;6.30;5.32;;;16.50;99.90;;;;;;5072602;28;20425;-59
2022/05/11 01:08:08;;;;;;;6.55;5.38;;;16.50;99.90;;;;;;5071326;28;20021;-59
2022/05/11 01:10:34;;;;;;;6.50;5.00;;;16.50;99.90;;;;;;5072541;28;20103;-59
2022/05/11 01:13:04;;;;;;;6.55;5.57;;;16.40;99.90;;;;;;5071261;28;20064;-59
2022/05/11 01:15:32;;;;;;;11.47;7.07;;;16.40;99.90;;;;;;5071664;28;20044;-57
2022/05/11 01:17:59;;;;;;;12.63;6.55;;;16.40;99.90;;;;;;5071322;28;20028;-58
2022/05/11 01:20:27;;;;;;;8.82;5.68;;;16.40;99.90;;;;;;5072064;28;20025;-59
2022/05/11 01:23:18;;;;;;;7.18;5.18;;;16.40;99.90;;;;;;5072690;28;20104;-59
2022/05/11 01:25:44;;;;;;;6.05;5.10;;;16.40;99.90;;;;;;5071231;28;20048;-59
2022/05/11 01:28:13;;;;;;;8.20;5.50;;;16.50;99.90;;;;;;5072456;28;20095;-59
2022/05/11 01:31:03;;;;;;;9.55;5.07;;;16.50;99.90;;;;;;5072155;28;20017;-56
2022/05/11 01:33:30;;;;;;;6.43;5.32;;;16.50;99.90;;;;;;5063161;28;20462;-59
2022/05/11 01:35:58;;;;;;;8.68;5.15;;;16.50;99.90;;;;;;5071085;28;20025;-58
2022/05/11 01:38:40;;;;;;;6.65;5.38;;;16.40;99.90;;;;;;5072327;28;20074;-59
2022/05/11 01:41:06;;;;;;;7.80;5.57;;;16.40;99.90;;;;;;5071090;28;20021;-56
2022/05/11 01:43:36;;;;;;;8.60;5.63;;;16.30;99.90;;;;;;5072554;28;20019;-58
2022/05/11 01:46:03;;;;;;;8.55;5.88;;;16.20;99.90;;;;;;5072552;28;20029;-59
2022/05/11 01:48:29;;;;;;;8.32;5.95;;;16.20;99.90;;;;;;5070928;28;20020;-58
2022/05/11 01:50:55;;;;;;;7.68;5.63;;;16.10;99.90;;;;;;5072345;28;20021;-58
2022/05/11 01:53:21;;;;;;;9.02;5.57;;;16.00;99.90;;;;;;5074485;28;20031;-58
2022/05/11 01:55:46;;;;;;;9.73;5.72;;;15.90;99.90;;;;;;5075663;28;20025;-59
2022/05/11 01:58:13;;;;;;;7.25;6.18;;;15.90;99.90;;;;;;5074697;28;20382;-58
2022/05/11 02:00:41;;;;;;;8.05;6.55;;;15.80;99.90;;;;;;5074600;28;20021;-58
2022/05/11 02:03:07;;;;;;;10.45;6.70;;;15.80;99.90;;;;;;5074947;28;20115;-57
2022/05/11 02:08:18;;;;;;;10.82;6.13;;;15.70;99.90;;;;;;5076154;28;20032;-57
2022/05/11 02:10:44;;;;;;;7.90;6.07;;;15.70;99.90;;;;;;5074440;28;20032;-59
2022/05/11 02:13:09;;;;;;;7.95;6.60;;;15.70;99.90;;;;;;5074081;28;20020;-58
2022/05/11 02:15:38;;;;;;;9.98;6.57;;;15.70;99.90;;;;;;5075408;28;20494;-58
2022/05/11 02:18:04;;;;;;;8.48;6.30;;;15.60;99.90;;;;;;5075463;28;20024;-58
2022/05/11 02:20:30;;;;;;;7.60;5.88;;;15.50;99.90;;;;;;5075240;28;20086;-58
2022/05/11 02:22:56;;;;;;;8.02;6.28;;;15.50;99.90;;;;;;5074074;28;20028;-58
2022/05/11 02:25:22;;;;;;;7.72;6.40;;;15.40;99.90;;;;;;5073964;28;20017;-59
2022/05/11 02:27:49;;;;;;;7.35;6.65;;;15.40;99.90;;;;;;5075797;28;20033;-59
2022/05/11 02:30:21;;;;;;;9.55;6.80;;;15.40;99.90;;;;;;5075367;28;20028;-58
2022/05/11 02:32:47;;;;;;;14.73;7.68;;;15.30;99.90;;;;;;5073890;28;20028;-57
2022/05/11 02:35:12;;;;;;;10.85;7.30;;;15.30;99.90;;;;;;5073743;28;20021;-57
2022/05/11 02:37:45;;;;;;;8.73;7.28;;;15.20;99.90;;;;;;5074060;28;20028;-58
2022/05/11 02:40:13;;;;;;;10.45;7.47;;;15.20;99.90;;;;;;5073681;28;20024;-57
2022/05/11 02:42:39;;;;;;;9.40;6.40;;;15.20;99.90;;;;;;5075188;28;20027;-59
2022/05/11 02:45:06;;;;;;;9.52;7.22;;;15.20;99.90;;;;;;5073607;28;20020;-57
2022/05/11 02:47:32;;;;;;;9.80;7.80;;;15.20;99.90;;;;;;5073849;28;20032;-57
2022/05/11 02:49:58;;;;;;;9.80;7.22;;;15.10;99.90;;;;;;5073557;28;20032;-59
2022/05/11 02:52:23;;;;;;;11.35;7.55;;;15.10;99.90;;;;;;5074208;28;20078;-58
2022/05/11 02:54:49;;;;;;;12.35;7.97;;;15.10;99.90;;;;;;5075045;28;20033;-59
2022/05/11 02:57:16;;;;;;;10.35;7.85;;;15.10;99.90;;;;;;5074120;28;20021;-56
2022/05/11 02:59:43;;;;;;;14.60;7.20;;;15.10;99.90;;;;;;5074504;28;20012;-59
2022/05/11 03:02:09;;;;;;;11.93;8.40;;;15.00;99.90;;;;;;5072795;28;20074;-58
2022/05/11 03:04:34;;;;;;;11.30;8.18;;;15.00;99.90;;;;;;5073137;28;20020;-58
2022/05/11 03:07:00;;;;;;;9.65;7.32;;;15.00;99.90;;;;;;5074693;28;20032;-58
2022/05/11 03:09:26;;;;;;;11.13;7.07;;;14.90;99.90;;;;;;5073426;28;20056;-57
2022/05/11 03:11:51;;;;;;;10.93;7.18;;;14.90;99.90;;;;;;5074284;28;20104;-57
2022/05/11 03:14:17;;;;;;;10.43;7.10;;;14.80;99.90;;;;;;5074325;28;20032;-59
2022/05/11 03:16:43;;;;;;;9.82;6.88;;;14.70;99.90;;;;;;5072799;28;20028;-58
2022/05/11 03:19:09;;;;;;;8.60;6.82;;;14.70;99.90;;;;;;5073112;28;20021;-58
2022/05/11 03:21:34;;;;;;;10.10;7.43;;;14.80;99.90;;;;;;5073120;28;20023;-58
2022/05/11 03:24:00;;;;;;;9.77;7.00;;;14.70;99.90;;;;;;5072805;28;20108;-58
2022/05/11 03:26:26;;;;;;;14.63;7.75;;;14.70;99.90;;;;;;5074012;28;20036;-58
2022/05/11 03:28:52;;;;;;;15.55;7.50;;;14.70;99.90;;;;;;5073059;28;20398;-59
2022/05/11 03:31:18;;;;;;;9.07;6.80;;;14.70;99.90;;;;;;5072657;28;20028;-59
2022/05/11 03:36:29;;;;;;;10.98;7.60;;;14.60;99.90;;;;;;5074221;28;20039;-59
2022/05/11 03:38:55;;;;;;;13.15;7.57;;;14.60;99.90;;;;;;5073924;28;20020;-56
2022/05/11 03:41:21;;;;;;;9.40;7.30;;;14.50;99.90;;;;;;5073714;28;20028;-56
2022/05/11 03:43:47;;;;;;;8.35;6.70;;;14.40;99.90;;;;;;5073231;28;20021;-58
2022/05/11 03:46:13;;;;;;;15.52;8.30;;;14.40;99.90;;;;;;5073698;28;20024;-59
2022/05/11 03:48:38;;;;;;;15.77;7.68;;;14.30;99.90;;;;;;5073504;28;20158;-59
2022/05/11 03:51:05;;;;;;;9.95;7.38;;;14.30;99.90;;;;;;5073499;28;20024;-59
2022/05/11 03:53:32;;;;;;;9.43;7.20;;;14.30;99.90;;;;;;5072307;28;20092;-59
2022/05/11 03:55:57;;;;;;;9.95;7.47;;;14.20;99.90;;;;;;5073350;28;20028;-58
2022/05/11 03:58:23;;;;;;;12.73;7.53;;;14.20;99.90;;;;;;5072130;28;20112;-59
2022/05/11 04:00:49;;;;;;;12.30;8.00;;;14.20;99.90;;;;;;5073405;28;20418;-58
2022/05/11 04:03:15;;;;;;;10.80;7.38;;;14.10;99.90;;;;;;5073383;28;20032;-59
2022/05/11 04:05:41;;;;;;;12.50;7.63;;;14.10;99.90;;;;;;5072789;28;20024;-59
2022/05/11 04:08:07;;;;;;;9.77;7.20;;;14.10;99.90;;;;;;5071991;28;20028;-59
2022/05/11 04:10:33;;;;;;;16.45;8.10;;;14.10;99.90;;;;;;5072208;28;20082;-59
2022/05/11 04:13:04;;;;;;;14.80;8.23;;;14.10;99.90;;;;;;5071768;28;20020;-59
2022/05/11 04:15:30;;;;;;;10.70;7.60;;;14.00;99.90;;;;;;5072018;28;20020;-59
2022/05/11 04:17:55;;;;;;;10.43;7.97;;;14.00;99.90;;;;;;5073318;28;20021;-59
2022/05/11 04:20:21;;;;;;;10.95;7.63;;;14.00;99.90;;;;;;5072314;28;20020;-57
2022/05/11 04:22:48;;;;;;;9.25;6.85;;;14.00;99.90;;;;;;5071815;28;20024;-58
2022/05/11 04:25:15;;;;;;;10.20;7.28;;;14.00;99.90;;;;;;5071739;28;20017;-58
2022/05/11 04:27:45;;;;;;;12.60;7.88;;;14.00;99.90;;;;;;5073280;28;20031;-58
2022/05/11 04:30:12;;;;;;;16.50;9.20;;;14.00;99.90;;;;;;5071589;28;20024;-57
2022/05/11 04:32:38;;;;;;;15.02;7.47;;;14.00;99.90;;;;;;5073241;28;20056;-58
2022/05/11 04:35:05;;;;;;;15.20;8.27;;;14.10;99.90;;;;;;5072857;28;20101;-58
2022/05/11 04:37:30;;;;;;;12.00;7.68;;;14.20;99.90;;;;;;5073250;28;20029;-58
2022/05/11 04:39:56;;;;;;;11.20;7.68;;;14.30;99.90;;;;;;5073088;28;20028;-58
2022/05/11 04:42:22;;;;;;;10.32;7.85;;;14.30;99.90;;;;;;5072307;28;20107;-59
2022/05/11 04:44:47;;;;;;;10.63;7.80;;;14.40;99.90;;;;;;5073409;28;20024;-59
2022/05/11 04:47:16;;;;;;;14.80;7.65;;;14.40;99.90;;;;;;5073110;28;20024;-60
2022/05/11 04:49:42;;;;;;;10.50;7.13;;;14.50;99.90;;;;;;5073388;28;20025;-60
2022/05/11 04:52:16;;;;;;;13.57;8.10;;;14.70;99.90;;;;;;5073133;28;20056;-59
2022/05/11 04:54:48;;;;;;;11.48;7.28;;;14.70;99.90;;;;;;5071852;28;20491;-60
2022/05/11 04:57:14;;;;;;;;;;;14.70;99.90;;;;;;5073146;28;20068;-60
2022/05/11 04:59:40;;;;;;;10.27;7.75;;;14.80;99.90;;;;;;5072126;28;19948;-59
2022/05/11 05:02:07;;;;;;;12.93;7.93;;;14.80;99.90;;;;;;5072399;28;20070;-59
2022/05/11 05:04:33;;;;;;;10.63;7.35;;;14.80;99.90;;;;;;5071866;28;20111;-59
2022/05/11 05:06:59;;;;;;;13.00;8.00;;;14.90;99.90;;;;;;5072226;28;20121;-59
2022/05/11 05:09:25;;;;;;;13.68;8.40;;;14.90;99.90;;;;;;5071652;28;20048;-59
2022/05/11 05:11:51;;;;;;;15.07;8.18;;;14.90;99.90;;;;;;5073084;28;20387;-59
2022/05/11 05:14:17;;;;;;;14.80;8.85;;;15.00;99.90;;;;;;5071439;28;20039;-59
2022/05/11 05:16:43;;;;;;;11.75;8.93;;;15.00;99.90;;;;;;5071841;28;20033;-59
2022/05/11 05:19:09;;;;;;;8.88;7.10;;;15.50;99.90;;;;;;5071870;28;20074;-60
2022/05/11 05:21:35;;;;;;;14.82;7.65;;;16.10;99.90;;;;;;5072579;28;20066;-60
2022/05/11 05:24:01;;;;;;;12.23;8.27;;;16.50;99.90;;;;;;5072790;28;20059;-59
2022/05/11 05:26:27;;;;;;;11.60;7.70;;;16.70;99.90;;;;;;5074310;28;20031;-60
2022/05/11 05:31:37;;;;;;;11.10;8.02;;;17.10;99.90;;;;;;5076856;28;20074;-60
2022/05/11 05:34:04;;;;;;;11.45;8.23;;;17.00;99.90;;;;;;5076443;28;20024;-60
2022/05/11 05:36:32;;;;;;;13.18;8.10;;;17.30;99.90;;;;;;5075120;28;20111;-59
2022/05/11 05:38:58;;;;;;;11.13;6.63;;;17.80;99.90;;;;;;5075668;28;20025;-60
2022/05/11 05:41:26;;;;;;;12.02;7.45;;;18.50;99.90;;;;;;5075175;28;20016;-61
2022/05/11 05:43:52;;;;;;;12.82;7.38;;;19.10;99.90;;;;;;5075213;28;20020;-61
2022/05/11 05:46:18;;;;;;;9.20;7.57;;;19.60;99.90;;;;;;5076595;28;20040;-60
2022/05/11 05:48:44;;;;;;;10.68;7.15;;;20.30;99.90;;;;;;5075237;28;20025;-61
2022/05/11 05:51:13;;;;;;;9.25;7.18;;;20.60;99.90;;;;;;5074911;28;20036;-60
2022/05/11 05:53:41;;;;;;;9.27;6.80;;;21.20;99.90;;;;;;5076659;28;20033;-59
2022/05/11 05:56:09;;;;;;;8.60;7.53;;;21.90;99.90;;;;;;5074856;28;20115;-60
2022/05/11 05:58:35;;;;;;;8.90;7.32;;;22.30;99.90;;;;;;5075920;28;20429;-60
2022/05/11 06:01:01;;;;;;;14.75;7.72;;;22.00;99.90;;;;;;5076287;28;20021;-59
2022/05/11 06:03:28;;;;;;;14.07;7.32;;;21.90;99.90;;;;;;5075010;28;20107;-60
2022/05/11 06:05:54;;;;;;;10.02;6.97;;;22.00;99.90;;;;;;5075899;28;20429;-59
2022/05/11 06:08:23;;;;;;;8.93;7.05;;;21.90;99.90;;;;;;5075937;28;20017;-60
2022/05/11 06:10:51;;;;;;;11.98;7.32;;;22.20;99.90;;;;;;5075824;28;20028;-59
2022/05/11 06:13:20;;;;;;;9.27;7.45;;;22.40;99.90;;;;;;5074387;28;20036;-60
2022/05/11 06:15:46;;;;;;;13.20;7.47;;;22.60;99.90;;;;;;5074516;28;20059;-60
2022/05/11 06:18:13;;;;;;;12.05;7.20;;;22.40;99.90;;;;;;5074784;28;20071;-60
2022/05/11 06:20:39;;;;;;;11.45;7.70;;;22.40;99.90;;;;;;5075668;28;20111;-60
2022/05/11 06:23:05;;;;;;;14.15;6.97;;;22.60;99.90;;;;;;5074771;28;20052;-60
2022/05/11 06:25:32;;;;;;;8.23;7.03;;;23.10;99.90;;;;;;5074359;28;20148;-61
2022/05/11 06:27:58;;;;;;;10.00;7.07;;;23.60;99.90;;;;;;5074627;28;20028;-61
2022/05/11 06:30:25;;;;;;;12.38;7.88;;;23.70;99.90;;;;;;5074238;28;20097;-61
2022/05/11 06:32:51;;;;;;;8.95;7.22;;;23.70;99.90;;;;;;5075456;28;20029;-61
2022/05/11 06:35:17;;;;;;;8.15;6.93;;;24.10;99.90;;;;;;5074109;28;20024;-61
2022/05/11 06:37:44;;;;;;;8.88;6.65;;;24.60;99.90;;;;;;5073253;28;20021;-61
2022/05/11 06:40:11;;;;;;;14.93;7.15;;;24.70;99.90;;;;;;5073983;28;20078;-61
2022/05/11 06:42:37;;;;;;;9.82;6.75;;;25.10;99.90;;;;;;5075053;28;20021;-61
2022/05/11 06:45:05;;;;;;;6.88;6.07;;;25.80;99.90;;;;;;5075460;28;20035;-61
2022/05/11 06:47:31;;;;;;;7.88;6.57;;;26.10;99.90;;;;;;5075030;28;20039;-61
2022/05/11 06:49:57;;;;;;;8.35;5.93;;;26.80;99.90;;;;;;5073855;28;20033;-61
2022/05/11 06:52:23;;;;;;;9.77;7.07;;;27.20;99.90;;;;;;5073923;28;20067;-61
2022/05/11 07:00:19;;;;;;;9.75;5.82;;;26.90;99.90;;;;;;5075514;28;20074;-61
2022/05/11 07:02:44;;;;;;;9.55;5.78;;;27.00;99.90;;;;;;5074975;28;20025;-61
2022/05/11 07:05:10;;;;;;;8.93;5.65;;;26.80;99.90;;;;;;5074814;28;20024;-61
2022/05/11 07:07:36;;;;;;;7.82;4.65;;;27.10;99.90;;;;;;5073507;28;20486;-61
2022/05/11 07:10:04;;;;;;;6.13;4.35;;;28.10;99.90;;;;;;5074916;28;20036;-62
2022/05/11 07:12:37;;;;;;;8.20;4.35;;;29.10;99.90;;;;;;5073441;28;20020;-61
2022/05/11 07:15:06;;;;;;;7.68;5.32;;;29.40;99.90;;;;;;5074563;28;20032;-62
2022/05/11 07:17:38;;;;;;;7.88;5.03;;;29.50;99.90;;;;;;5073229;28;20115;-61
2022/05/11 07:20:08;;;;;;;4.97;4.47;;;29.70;99.90;;;;;;5073834;28;20020;-61
2022/05/11 07:22:33;;;;;;;8.38;4.40;;;30.10;99.90;;;;;;5074391;28;20020;-61
2022/05/11 07:24:59;;;;;;;6.38;4.15;;;30.60;99.90;;;;;;5073413;28;20031;-62
2022/05/11 07:30:47;;;;;;;9.25;5.38;;;31.80;99.50;;;;;;5074594;28;20028;-61
2022/05/11 07:33:14;;;;;;;5.75;4.80;;;30.80;98.10;;;;;;5072965;28;20024;-62
2022/05/11 07:35:40;;;;;;;5.93;4.80;;;30.30;99.10;;;;;;5072964;28;20103;-61
2022/05/11 07:38:11;;;;;;;6.43;4.10;;;30.50;99.10;;;;;;5072883;28;20120;-61
2022/05/11 07:40:36;;;;;;;8.18;5.50;;;30.20;99.20;;;;;;5072724;28;20471;-61
2022/05/11 07:43:02;;;;;;;8.13;4.60;;;30.00;98.80;;;;;;5074111;28;20052;-61
2022/05/11 07:45:28;;;;;;;7.35;4.55;;;29.90;99.10;;;;;;5073950;28;20383;-61
2022/05/11 07:47:53;;;;;;;5.00;4.53;;;29.40;98.60;;;;;;5072702;28;20024;-61
2022/05/11 07:50:19;;;;;;;6.97;4.80;;;29.40;99.20;;;;;;5072673;28;20025;-62
2022/05/11 07:52:46;;;;;;;6.18;4.30;;;30.40;98.60;;;;;;5073462;28;20020;-61
2022/05/11 07:55:14;;;;;;;5.25;4.00;;;30.00;98.40;;;;;;5072639;28;20398;-61
2022/05/11 08:00:28;;;;;;;6.35;4.68;;;29.80;98.90;;;;;;5073825;28;20074;-62
2022/05/11 08:02:55;;;;;;;5.82;4.85;;;30.20;97.60;;;;;;5072392;28;20111;-61
2022/05/11 08:05:21;;;;;;;5.75;4.40;;;29.90;98.40;;;;;;5072499;28;20032;-61
2022/05/11 08:07:49;;;;;;;6.95;4.05;;;30.70;98.10;;;;;;5072496;28;20029;-62
2022/05/11 08:10:18;;;;;;;5.30;4.15;;;31.80;96.10;;;;;;5072416;28;20084;-62
2022/05/11 08:12:44;;;;;;;4.65;4.18;;;33.20;94.60;;;;;;5073670;28;20024;-62
2022/05/11 08:15:12;;;;;;;7.30;3.85;;;34.30;92.70;;;;;;5074162;28;20488;-62
2022/05/11 08:17:41;;;;;;;5.20;3.75;;;35.10;90.60;;;;;;5072579;28;20052;-62
2022/05/11 08:20:14;;;;;;;6.10;3.20;;;36.20;86.60;;;;;;5072184;28;20047;-62
2022/05/11 08:22:42;;;;;;;7.03;2.83;;;37.10;80.80;;;;;;5073516;28;20017;-62
2022/05/11 08:25:08;;;;;;;2.95;2.65;;;37.90;75.20;;;;;;5073468;28;20387;-63
2022/05/11 08:27:34;;;;;;;3.42;2.80;;;38.70;70.70;;;;;;5072193;28;20020;-63
2022/05/11 08:35:28;;;;;;;4.65;3.33;;;39.30;64.90;;;;;;5073937;28;20035;-63
2022/05/11 08:37:55;;;;;;;4.40;2.95;;;39.80;61.60;;;;;;5073534;28;20131;-62
2022/05/11 08:40:30;;;;;;;3.40;3.10;;;40.30;61.50;;;;;;5072338;28;20024;-63
2022/05/11 08:42:56;;;;;;;3.25;2.75;;;40.80;60.00;;;;;;5073209;28;20024;-63
2022/05/11 08:45:27;;;;;;;3.25;2.83;;;41.30;58.00;;;;;;5072884;28;20039;-63
2022/05/11 08:47:53;;;;;;;3.80;3.13;;;41.40;56.90;;;;;;5071907;28;20062;-63
2022/05/11 08:50:23;;;;;;;3.90;2.85;;;41.50;55.30;;;;;;5072704;28;20056;-63
2022/05/11 08:53:06;;;;;;;3.78;2.60;;;41.50;55.70;;;;;;5072336;28;20463;-63
2022/05/11 08:55:48;;;;;;;6.40;2.78;;;41.50;55.40;;;;;;5072763;28;20028;-62
2022/05/11 08:58:46;;;;;;;7.60;3.00;;;41.50;54.60;;;;;;5071783;28;20505;-64
2022/05/11 09:01:19;;;;;;;3.75;2.92;;;41.50;54.90;;;;;;5074238;28;20030;-63
2022/05/11 09:03:46;;;;;;;5.35;2.75;;;41.70;55.10;;;;;;5077201;28;20086;-63
2022/05/11 09:06:28;;;;;;;3.30;3.08;;;41.70;54.00;;;;;;5075855;28;20020;-63
2022/05/11 09:08:59;;;;;;;6.35;3.22;;;41.80;53.70;;;;;;5075727;28;20085;-63
2022/05/11 09:11:41;;;;;;;3.35;3.15;;;41.80;53.30;;;;;;5076623;28;20029;-61
2022/05/11 09:14:07;;;;;;;4.60;3.10;;;42.10;54.30;;;;;;5059226;28;20040;-62
2022/05/11 09:16:59;;;;;;;3.08;2.80;;;42.30;52.10;;;;;;5075581;28;20024;-62
2022/05/11 09:19:30;;;;;;;3.15;2.88;;;41.70;51.70;;;;;;5073277;28;20067;-62
2022/05/11 09:22:14;;;;;;;7.18;3.50;;;41.10;52.00;;;;;;5077355;28;20029;-61
2022/05/11 09:25:21;;;;;;;5.38;3.00;;;41.00;53.60;;;;;;5076806;28;20048;-61
2022/05/11 09:27:48;;;;;;;3.05;2.75;;;41.40;53.10;;;;;;5075467;28;20032;-63
2022/05/11 09:30:16;;;;;;;3.90;2.42;;;41.50;52.50;;;;;;5077031;28;20040;-62
2022/05/11 09:32:44;;;;;;;5.03;2.88;;;41.60;52.10;;;;;;5075645;28;20044;-62
2022/05/11 09:35:31;;;;;;;3.00;2.55;;;41.60;52.20;;;;;;5075664;28;20028;-63
2022/05/11 09:38:26;;;;;;;3.65;2.60;;;41.50;51.70;;;;;;5076753;28;20028;-63
2022/05/11 09:41:01;;;;;;;5.72;2.92;;;41.40;52.40;;;;;;5075535;28;20017;-62
2022/05/11 09:43:43;;;;;;;7.32;2.72;;;41.70;51.80;;;;;;5075251;28;20021;-63
2022/05/11 09:46:22;;;;;;;6.03;2.67;;;41.60;50.90;;;;;;5075685;28;20067;-61
2022/05/11 09:49:05;;;;;;;3.17;2.90;;;41.50;51.70;;;;;;5075876;28;20362;-62
2022/05/11 09:51:40;;;;;;;6.35;3.00;;;41.40;52.10;;;;;;5076297;28;20020;-62
2022/05/11 09:54:18;;;;;;;3.40;2.60;;;41.70;51.90;;;;;;5074890;28;20127;-63
2022/05/11 09:56:49;;;;;;;5.32;2.70;;;41.70;52.30;;;;;;5075813;28;20056;-63
2022/05/11 09:59:27;;;;;;;6.25;2.80;;;41.40;51.50;;;;;;5074804;28;20047;-61
2022/05/11 10:01:59;;;;;;;5.35;3.15;;;41.80;51.80;;;;;;5075433;28;20470;-62
2022/05/11 10:04:35;;;;;;;4.22;2.72;;;41.30;51.70;;;;;;5076542;28;20028;-62
2022/05/11 10:07:01;;;;;;;5.57;3.30;;;41.00;50.80;;;;;;5074888;28;20134;-63
2022/05/11 10:09:34;;;;;;;6.20;3.10;;;40.40;52.20;;;;;;5074574;28;20024;-63
2022/05/11 10:12:01;;;;;;;4.93;3.10;;;40.30;53.40;;;;;;5073486;28;20031;-60
2022/05/11 10:23:17;;;;;;;7.93;3.08;;;38.90;53.40;;;;;;5076267;28;20106;-62
2022/05/11 10:25:47;;;;;;;6.47;2.92;;;38.50;53.50;;;;;;5075691;28;20017;-61
2022/05/11 10:31:40;;;;;;;6.20;2.70;;;36.90;55.70;;;;;;5075889;28;20033;-62
2022/05/11 10:34:16;;;;;;;4.15;2.92;;;36.10;56.70;;;;;;5074865;28;20024;-62
2022/05/11 10:36:57;;;;;;;3.05;2.80;;;35.50;57.00;;;;;;5075005;28;20035;-60
2022/05/11 10:40:02;;;;;;;7.10;3.10;;;35.20;57.50;;;;;;5075421;28;20060;-61
2022/05/11 10:43:07;;;;;;;5.68;2.72;;;34.80;58.30;;;;;;5075336;28;20051;-61
2022/05/11 10:46:05;;;;;;;6.45;2.65;;;34.00;59.90;;;;;;5069740;28;20110;-59
2022/05/11 10:48:35;;;;;;;4.45;3.00;;;33.00;60.10;;;;;;5075174;28;20032;-60
2022/05/11 10:51:16;;;;;;;4.07;2.85;;;32.50;60.60;;;;;;5075168;28;20020;-60
2022/05/11 10:53:48;;;;;;;;;;;32.20;61.10;;;;;;5074347;28;20039;-61
2022/05/11 10:56:29;;;;;;;5.93;3.30;;;32.00;62.70;;;;;;5074566;28;20007;-62
2022/05/11 10:59:04;;;;;;;9.18;2.90;;;32.10;63.60;;;;;;5075065;28;20051;-62
2022/05/11 11:01:38;;;;;;;15.35;4.05;;;31.80;63.50;;;;;;5074289;28;20039;-61
2022/05/11 11:04:39;;;;;;;4.43;3.20;;;31.70;62.90;;;;;;5073650;28;20070;-61
2022/05/11 11:07:34;;;;;;;5.38;3.17;;;31.40;64.50;;;;;;5073881;28;20024;-59
2022/05/11 11:10:21;;;;;;;3.92;3.05;;;31.30;65.10;;;;;;5074569;28;20094;-61
2022/05/11 11:13:15;;;;;;;6.88;2.90;;;31.20;65.30;;;;;;5074008;28;20034;-59
2022/05/11 11:15:44;;;;;;;6.50;2.90;;;30.90;65.10;;;;;;5074766;28;20033;-60
2022/05/11 11:18:14;;;;;;;10.45;3.10;;;30.70;65.80;;;;;;5073361;28;20067;-59
2022/05/11 11:20:43;;;;;;;4.85;2.92;;;30.40;66.80;;;;;;5073363;28;20039;-61
2022/05/11 11:23:15;;;;;;;4.45;2.60;;;30.20;67.00;;;;;;5072972;28;20107;-61
2022/05/11 11:25:52;;;;;;;5.43;3.25;;;30.10;67.50;;;;;;5073435;28;20070;-62
2022/05/11 11:28:23;;;;;;;6.32;3.58;;;30.10;67.50;;;;;;5073179;28;20027;-60
2022/05/11 11:30:58;;;;;;;6.53;3.10;;;30.10;67.40;;;;;;5073076;28;20025;-60
2022/05/11 11:33:28;;;;;;;3.28;2.88;;;30.10;68.30;;;;;;5073832;28;20031;-59
2022/05/11 11:35:59;;;;;;;5.35;2.92;;;30.10;67.10;;;;;;5074984;28;20028;-51
2022/05/11 11:38:44;;;;;;;3.83;2.70;;;30.00;68.80;;;;;;5074142;28;20451;-59
2022/05/11 11:41:11;;;;;;;4.45;2.97;;;30.00;68.90;;;;;;5074191;28;20032;-60
2022/05/11 11:43:57;;;;;;;5.70;2.92;;;29.80;68.60;;;;;;5073117;28;20026;-58
2022/05/11 11:46:50;;;;;;;4.55;3.00;;;29.90;69.30;;;;;;5074205;28;20025;-59
2022/05/11 11:49:18;;;;;;;5.78;2.70;;;29.90;70.50;;;;;;5072104;28;20041;-60
2022/05/11 11:52:05;;;;;;;12.68;3.20;;;29.80;68.40;;;;;;5072725;28;20391;-60
2022/05/11 11:54:36;;;;;;;6.90;3.03;;;29.60;67.80;;;;;;5072732;28;20035;-59
2022/05/11 11:57:05;;;;;;;3.60;2.75;;;29.40;68.10;;;;;;5072514;28;20050;-59
2022/05/11 11:59:42;;;;;;;5.05;3.30;;;29.40;69.50;;;;;;5072412;28;20425;-60
2022/05/11 12:02:28;;;;;;;7.57;3.10;;;29.50;69.60;;;;;;5073765;28;20024;-60
2022/05/11 12:05:11;;;;;;;5.70;3.05;;;29.40;67.40;;;;;;5073782;28;20017;-60
2022/05/11 12:16:53;;;;;;;3.78;2.83;;;29.30;68.80;;;;;;5074030;28;20032;-60
2022/05/11 12:19:21;;;;;;;9.43;3.17;;;29.40;69.70;;;;;;5073082;28;20028;-59
2022/05/11 12:22:13;;;;;;;5.18;2.60;;;29.40;68.80;;;;;;5070698;28;20020;-60
2022/05/11 12:24:47;;;;;;;5.50;2.55;;;29.50;67.70;;;;;;5072815;28;20044;-60
2022/05/11 12:27:34;;;;;;;7.05;2.42;;;29.30;67.50;;;;;;5072263;28;20059;-60
2022/05/11 12:30:32;;;;;;;3.78;3.00;;;29.10;67.50;;;;;;5071972;28;20555;-60
2022/05/11 12:33:04;;;;;;;5.32;2.40;;;29.00;68.90;;;;;;5073707;28;20024;-60
2022/05/11 12:35:31;;;;;;;5.53;2.70;;;29.10;68.90;;;;;;5072337;28;20033;-60
2022/05/11 12:38:03;;;;;;;8.70;2.70;;;29.10;69.80;;;;;;5073296;28;20108;-60
2022/05/11 12:40:31;;;;;;;3.28;2.55;;;29.10;69.30;;;;;;5072893;28;20020;-60
2022/05/11 12:42:59;;;;;;;5.82;2.90;;;29.10;68.10;;;;;;5072060;28;20032;-60
2022/05/11 12:45:33;;;;;;;4.07;2.30;;;29.10;68.60;;;;;;5072094;28;20028;-60
2022/05/11 12:48:00;;;;;;;3.33;2.53;;;29.10;67.50;;;;;;5072097;28;20021;-60
2022/05/11 12:50:37;;;;;;;17.23;4.65;;;28.90;68.50;;;;;;5072867;28;20024;-59
2022/05/11 12:53:15;;;;;;;3.08;2.78;;;29.00;69.40;;;;;;5071893;28;20036;-58
2022/05/11 12:55:44;;;;;;;6.78;2.85;;;29.00;70.00;;;;;;5073123;28;20099;-60
2022/05/11 12:58:25;;;;;;;3.58;2.65;;;29.00;68.90;;;;;;5071743;28;20028;-59
2022/05/11 13:00:59;;;;;;;5.97;2.83;;;29.00;69.40;;;;;;5071767;28;20021;-58
2022/05/11 13:03:33;;;;;;;3.35;2.55;;;29.00;68.50;;;;;;5073059;28;20112;-60
2022/05/11 13:06:03;;;;;;;6.97;3.10;;;28.90;69.10;;;;;;5072742;28;20031;-60
2022/05/11 13:08:40;;;;;;;6.35;2.95;;;28.90;70.00;;;;;;5073141;28;20020;-60
2022/05/11 13:11:09;;;;;;;9.68;3.42;;;28.80;69.80;;;;;;5072733;28;20070;-59
2022/05/11 13:13:36;;;;;;;11.38;3.17;;;28.70;70.00;;;;;;5071595;28;20052;-60
2022/05/11 13:16:08;;;;;;;8.82;3.15;;;28.60;69.10;;;;;;5072605;28;20111;-60
2022/05/11 13:18:35;;;;;;;8.88;3.05;;;28.60;69.30;;;;;;5071615;28;20108;-60
2022/05/11 13:21:05;;;;;;;4.90;3.00;;;28.60;70.20;;;;;;5071854;28;20021;-60
2022/05/11 13:23:34;;;;;;;9.63;2.53;;;28.70;70.50;;;;;;5071660;28;20050;-57
2022/05/11 13:26:05;;;;;;;3.90;2.88;;;28.80;70.50;;;;;;5073199;28;20050;-60
2022/05/11 13:29:08;;;;;;;7.72;2.80;;;28.70;69.60;;;;;;5071476;28;20467;-59
2022/05/11 13:31:35;;;;;;;5.10;2.63;;;28.60;70.90;;;;;;5071621;28;20095;-60
2022/05/11 13:34:02;;;;;;;3.67;2.85;;;28.50;69.10;;;;;;5071509;28;20090;-61
2022/05/11 13:36:40;;;;;;;8.25;2.90;;;28.60;71.10;;;;;;5072821;28;20055;-60
2022/05/11 13:39:12;;;;;;;4.85;2.75;;;28.70;70.70;;;;;;5072988;28;20013;-61
2022/05/11 13:41:49;;;;;;;7.05;3.00;;;28.70;71.40;;;;;;5072455;28;20052;-60
2022/05/11 13:44:33;;;;;;;6.15;2.80;;;28.70;69.50;;;;;;5072703;28;20013;-60
2022/05/11 13:49:48;;;;;;;4.95;2.92;;;28.70;69.90;;;;;;5076815;28;20063;-60
2022/05/11 13:52:34;;;;;;;4.38;2.58;;;28.70;69.00;;;;;;5076462;28;20033;-61